createdAt,value
2023-02-27T04:42:16.640Z,54.66
2023-02-27T04:45:23.385Z,54.87
2023-02-27T04:48:55.234Z,54.22
2023-02-27T04:52:10.412Z,54.17
2023-02-27T04:55:32.858Z,53.55
2023-02-27T04:58:45.001Z,53.37
2023-02-27T05:01:51.443Z,53.16
2023-02-27T05:04:58.771Z,53.68
2023-02-27T05:08:10.176Z,53.24
2023-02-27T05:11:23.282Z,53.80
2023-02-27T05:14:44.881Z,54.09
2023-02-27T05:17:50.250Z,53.61
2023-02-27T05:21:08.520Z,53.44
2023-02-27T05:24:38.789Z,53.36
2023-02-27T05:28:09.781Z,52.54
2023-02-27T05:31:28.603Z,52.73
2023-02-27T05:34:57.278Z,52.65
2023-02-27T05:38:28.893Z,53.47
2023-02-27T05:41:37.308Z,51.32
2023-02-27T05:44:45.191Z,51.55
2023-02-27T05:47:55.939Z,52.22
2023-02-27T05:50:59.579Z,51.77
2023-02-27T05:54:18.380Z,52.42
2023-02-27T05:57:29.649Z,53.07
2023-02-27T06:00:41.112Z,53.17
2023-02-27T06:03:43.961Z,52.61
2023-02-27T06:06:46.524Z,52.81
2023-02-27T06:09:50.032Z,51.67
2023-02-27T06:12:52.516Z,52.13
2023-02-27T06:15:55.161Z,51.35
2023-02-27T06:19:04.624Z,51.12
2023-02-27T06:22:07.660Z,50.29
2023-02-27T06:25:10.282Z,51.23
2023-02-27T06:28:13.114Z,52.11
2023-02-27T06:31:17.475Z,51.22
2023-02-27T06:34:20.110Z,50.70
2023-02-27T06:37:23.249Z,49.91
2023-02-27T06:40:26.237Z,50.10
2023-02-27T06:43:28.673Z,49.82
2023-02-27T06:46:31.496Z,49.62
2023-02-27T06:49:34.328Z,49.47
2023-02-27T06:52:39.081Z,48.98
2023-02-27T06:55:42.052Z,49.33
2023-02-27T06:58:44.916Z,48.99
2023-02-27T07:01:48.405Z,48.37
2023-02-27T07:04:52.321Z,48.00
2023-02-27T07:07:57.783Z,47.89
2023-02-27T07:11:01.797Z,47.28
2023-02-27T07:14:04.599Z,47.44
2023-02-27T07:17:07.262Z,47.53
2023-02-27T07:20:11.837Z,47.39
2023-02-27T07:23:14.815Z,47.09
2023-02-27T07:26:17.166Z,47.39
2023-02-27T07:29:19.932Z,46.65
2023-02-27T07:32:22.625Z,46.20
2023-02-27T07:35:25.309Z,46.63
2023-02-27T07:38:28.935Z,46.27
2023-02-27T07:41:32.554Z,46.16
2023-02-27T07:44:35.704Z,46.33
2023-02-27T07:47:38.502Z,45.85
2023-02-27T07:50:41.031Z,44.96
2023-02-27T07:53:43.750Z,45.75
2023-02-27T07:56:46.423Z,45.06
2023-02-27T07:59:49.147Z,44.75
2023-02-27T08:02:51.574Z,43.27
2023-02-27T08:05:54.283Z,40.95
2023-02-27T08:08:56.764Z,40.29
2023-02-27T08:11:59.672Z,42.02
2023-02-27T08:15:02.576Z,43.59
2023-02-27T08:18:05.864Z,44.01
2023-02-27T08:21:08.342Z,44.46
2023-02-27T08:24:11.137Z,44.43
2023-02-27T08:27:14.673Z,45.32
2023-02-27T08:30:18.965Z,45.58
2023-02-27T08:33:22.637Z,45.04
2023-02-27T08:36:25.816Z,44.42
2023-02-27T08:39:29.881Z,44.76
2023-02-27T08:42:34.013Z,45.09
2023-02-27T08:45:36.482Z,45.39
2023-02-27T08:48:39.361Z,45.02
2023-02-27T08:51:42.035Z,44.30
2023-02-27T08:54:45.134Z,44.45
2023-02-27T08:57:48.334Z,44.39
2023-02-27T09:00:51.376Z,44.76
2023-02-27T09:03:54.281Z,44.03
2023-02-27T09:06:57.494Z,43.60
2023-02-27T09:10:00.423Z,42.90
2023-02-27T09:13:03.707Z,43.15
2023-02-27T09:16:06.982Z,43.86
2023-02-27T09:19:09.908Z,43.46
2023-02-27T09:22:12.369Z,43.98
2023-02-27T09:25:15.211Z,43.17
2023-02-27T09:28:17.828Z,42.84
2023-02-27T09:31:20.670Z,42.44
2023-02-27T09:34:23.408Z,42.98
2023-02-27T09:37:26.699Z,43.18
2023-02-27T09:40:32.766Z,43.06
2023-02-27T09:43:43.843Z,43.45
2023-02-27T09:46:46.703Z,43.23
2023-02-27T09:50:03.985Z,43.47
2023-02-27T09:53:13.750Z,43.66
2023-02-27T09:56:30.649Z,43.32
2023-02-27T09:59:57.807Z,43.46
2023-02-27T10:03:36.270Z,43.75
2023-02-27T10:06:52.805Z,44.04
2023-02-27T10:10:07.396Z,43.06
2023-02-27T10:13:16.470Z,42.33
2023-02-27T10:16:21.505Z,42.06
2023-02-27T10:19:31.957Z,42.24
2023-02-27T10:22:41.134Z,42.45
2023-02-27T10:25:49.190Z,40.86
2023-02-27T10:28:52.125Z,40.47
2023-02-27T10:32:07.198Z,40.80
2023-02-27T10:35:13.112Z,40.70
2023-02-27T10:38:20.224Z,40.89
2023-02-27T10:41:23.832Z,41.40
2023-02-27T10:44:26.814Z,40.78
2023-02-27T10:47:30.087Z,40.94
2023-02-27T10:50:36.845Z,40.73
2023-02-27T10:53:39.308Z,40.37
2023-02-27T10:56:45.911Z,40.72
2023-02-27T10:59:55.774Z,40.56
2023-02-27T11:02:59.171Z,40.71
2023-02-27T11:06:22.457Z,40.41
2023-02-27T11:09:29.585Z,39.31
2023-02-27T11:12:35.169Z,38.74
2023-02-27T11:15:38.770Z,38.78
2023-02-27T11:18:43.389Z,39.16
2023-02-27T11:22:20.587Z,39.55
2023-02-27T11:25:25.558Z,39.60
2023-02-27T11:28:30.797Z,39.20
2023-02-27T11:31:35.125Z,39.71
2023-02-27T11:34:50.851Z,39.48
2023-02-27T11:37:55.639Z,39.66
2023-02-27T11:41:07.738Z,41.68
2023-02-27T11:44:17.842Z,40.41
2023-02-27T11:47:38.884Z,39.85
2023-02-27T11:51:01.930Z,38.91
2023-02-27T11:54:34.744Z,38.41
2023-02-27T11:57:42.547Z,37.75
2023-02-27T12:00:52.665Z,38.26
2023-02-27T12:04:04.384Z,38.49
2023-02-27T12:07:23.054Z,39.26
2023-02-27T12:10:29.868Z,38.45
2023-02-27T12:13:38.528Z,38.47
2023-02-27T12:16:48.534Z,37.73
2023-02-27T12:20:25.029Z,38.47
2023-02-27T12:23:41.185Z,38.51
2023-02-27T12:26:48.840Z,37.69
2023-02-27T12:29:59.050Z,37.64
2023-02-27T12:33:12.028Z,38.62
2023-02-27T12:36:15.790Z,39.18
2023-02-27T12:39:23.812Z,38.89
2023-02-27T12:42:36.301Z,37.51
2023-02-27T12:46:14.357Z,37.66
2023-02-27T12:49:41.820Z,37.80
2023-02-27T12:53:13.082Z,38.70
2023-02-27T12:56:27.175Z,38.02
2023-02-27T12:59:54.668Z,37.89
2023-02-27T13:03:34.839Z,38.62
2023-02-27T13:06:37.447Z,37.78
2023-02-27T13:10:01.395Z,37.58
2023-02-27T13:13:16.291Z,38.69
2023-02-27T13:16:30.142Z,39.00
2023-02-27T13:19:44.881Z,39.87
2023-02-27T13:23:18.169Z,40.02
2023-02-27T13:26:33.165Z,40.39
2023-02-27T13:29:40.857Z,40.52
2023-02-27T13:32:52.441Z,40.69
2023-02-27T13:36:18.943Z,41.61
2023-02-27T13:39:40.437Z,40.59
2023-02-27T13:42:53.919Z,40.20
2023-02-27T13:45:58.837Z,39.43
2023-02-27T13:49:04.627Z,39.81
2023-02-27T13:52:07.062Z,40.92
2023-02-27T13:55:28.361Z,39.49
2023-02-27T13:58:31.072Z,40.59
2023-02-27T14:01:36.893Z,40.90
2023-02-27T14:04:50.300Z,39.25
2023-02-27T14:07:58.677Z,39.82
2023-02-27T14:11:10.741Z,39.10
2023-02-27T14:14:36.007Z,39.81
2023-02-27T14:17:44.839Z,39.55
2023-02-27T14:20:49.914Z,39.33
2023-02-27T14:23:54.521Z,39.33
2023-02-27T14:26:57.955Z,39.01
2023-02-27T14:30:04.725Z,39.64
2023-02-27T14:33:37.594Z,39.81
2023-02-27T14:36:51.133Z,39.97
2023-02-27T14:39:55.477Z,40.44
2023-02-27T14:43:21.584Z,40.58
2023-02-27T14:46:36.476Z,41.55
2023-02-27T14:49:39.479Z,40.10
2023-02-27T14:52:43.730Z,40.55
2023-02-27T14:55:54.404Z,41.96
2023-02-27T14:59:04.244Z,40.93
2023-02-27T15:02:35.405Z,40.56
2023-02-27T15:05:38.787Z,40.68
2023-02-27T15:08:45.360Z,42.26
2023-02-27T15:11:57.547Z,41.75
2023-02-27T15:15:06.125Z,41.55
2023-02-27T15:18:14.052Z,41.05
2023-02-27T15:21:18.460Z,41.48
2023-02-27T15:24:26.269Z,41.91
2023-02-27T15:27:30.137Z,40.90
2023-02-27T15:30:33.014Z,41.40
2023-02-27T15:33:36.767Z,41.69
2023-02-27T15:36:46.630Z,41.80
2023-02-27T15:39:51.317Z,42.66
2023-02-27T15:42:55.246Z,42.55
2023-02-27T15:45:58.515Z,42.59
2023-02-27T15:49:01.304Z,42.69
2023-02-27T15:52:20.501Z,42.13
2023-02-27T15:55:35.332Z,43.10
2023-02-27T15:58:50.455Z,43.59
2023-02-27T16:01:53.288Z,43.18
2023-02-27T16:04:56.558Z,43.16
2023-02-27T16:07:59.095Z,43.34
2023-02-27T16:11:04.080Z,43.34
2023-02-27T16:14:08.442Z,43.55
2023-02-27T16:17:28.583Z,44.13
2023-02-27T16:20:47.989Z,44.36
2023-02-27T16:23:51.247Z,44.08
2023-02-27T16:26:53.920Z,44.76
2023-02-27T16:30:02.872Z,44.87
2023-02-27T16:33:05.587Z,46.02
2023-02-27T16:36:20.393Z,45.66
2023-02-27T16:39:23.029Z,45.91
2023-02-27T16:42:25.760Z,45.82
2023-02-27T16:45:29.433Z,46.15
2023-02-27T16:48:32.227Z,45.41
